createdAt,value
2022-11-24T00:04:43.586Z,115.30
2022-11-24T00:09:50.705Z,127.40
2022-11-24T00:14:57.732Z,135.70
2022-11-24T00:20:06.057Z,121.30
2022-11-24T00:25:13.324Z,110.10
2022-11-24T00:30:20.479Z,111.30
2022-11-24T00:35:27.482Z,111.90
2022-11-24T00:40:35.187Z,113.40
2022-11-24T00:45:43.155Z,120.00
2022-11-24T00:56:05.974Z,116.50
2022-11-24T01:01:16.631Z,107.30
2022-11-24T01:06:25.331Z,111.40
2022-11-24T01:11:55.877Z,95.90
2022-11-24T01:17:02.927Z,94.80
2022-11-24T01:22:10.077Z,105.80
2022-11-24T01:27:17.184Z,139.00
2022-11-24T01:32:24.242Z,132.60
2022-11-24T01:37:31.317Z,132.20
2022-11-24T01:42:47.723Z,121.30
2022-11-24T01:47:54.977Z,112.80
2022-11-24T01:53:02.272Z,129.20
2022-11-24T01:58:14.548Z,114.70
2022-11-24T02:03:25.705Z,108.10
2022-11-24T02:08:40.709Z,132.30
2022-11-24T02:13:49.236Z,125.80
2022-11-24T02:18:56.640Z,130.70
2022-11-24T02:24:11.203Z,122.40
2022-11-24T02:29:18.321Z,114.00
2022-11-24T02:34:25.431Z,116.50
2022-11-24T02:39:32.563Z,115.40
2022-11-24T02:44:43.547Z,131.10
2022-11-24T02:49:50.621Z,124.10
2022-11-24T02:54:57.685Z,112.20
2022-11-24T03:00:05.069Z,108.20
2022-11-24T03:05:13.249Z,115.90
2022-11-24T03:10:20.369Z,119.50
2022-11-24T03:15:27.491Z,108.90
2022-11-24T03:20:34.613Z,119.50
2022-11-24T03:25:41.700Z,120.60
2022-11-24T03:30:50.954Z,124.80
2022-11-24T03:35:58.030Z,108.30
2022-11-24T03:41:05.156Z,107.60
2022-11-24T03:46:13.498Z,125.30
2022-11-24T03:51:20.522Z,120.60
2022-11-24T03:56:28.112Z,135.60
2022-11-24T04:01:35.272Z,140.80
2022-11-24T04:06:43.065Z,125.20
2022-11-24T04:12:08.012Z,107.00
2022-11-24T04:17:15.148Z,111.80
2022-11-24T04:22:22.210Z,105.00
2022-11-24T04:27:29.424Z,122.60
2022-11-24T04:32:36.625Z,114.20
2022-11-24T04:37:43.726Z,134.60
2022-11-24T04:42:56.787Z,126.10
2022-11-24T04:48:07.232Z,101.70
2022-11-24T04:53:14.711Z,119.30
2022-11-24T04:58:21.757Z,93.80
2022-11-24T05:03:28.905Z,130.80
2022-11-24T05:08:36.063Z,126.20
2022-11-24T05:13:43.268Z,110.30
2022-11-24T05:18:50.429Z,103.70
2022-11-24T05:23:57.389Z,112.50
2022-11-24T05:29:04.592Z,114.10
2022-11-24T05:34:12.317Z,118.50
2022-11-24T05:39:20.065Z,119.50
2022-11-24T05:44:27.171Z,144.30
2022-11-24T05:49:34.352Z,145.00
2022-11-24T05:54:41.465Z,124.60
2022-11-24T05:59:48.413Z,130.30
2022-11-24T06:04:55.341Z,127.90
2022-11-24T06:10:02.395Z,141.90
2022-11-24T06:15:11.392Z,153.80
2022-11-24T06:20:18.544Z,136.30
2022-11-24T06:25:26.533Z,135.90
2022-11-24T06:30:33.667Z,143.10
2022-11-24T06:35:40.729Z,131.20
2022-11-24T06:40:48.004Z,137.40
2022-11-24T06:45:55.550Z,122.40
2022-11-24T06:51:03.804Z,126.40
2022-11-24T06:56:16.281Z,145.70
2022-11-24T07:01:25.956Z,145.40
2022-11-24T07:06:34.177Z,120.80
2022-11-24T07:11:41.982Z,132.60
2022-11-24T07:16:51.379Z,112.80
2022-11-24T07:21:58.297Z,136.90
2022-11-24T07:27:05.286Z,138.20
2022-11-24T07:32:12.301Z,145.40
2022-11-24T07:37:19.414Z,139.10
2022-11-24T07:42:26.486Z,157.40
2022-11-24T07:47:33.391Z,127.10
2022-11-24T07:52:40.591Z,114.80
2022-11-24T07:57:50.107Z,115.70
2022-11-24T08:02:57.456Z,122.50
2022-11-24T08:08:05.272Z,149.30
2022-11-24T08:13:12.240Z,158.40
2022-11-24T08:18:29.482Z,143.70
2022-11-24T08:23:36.930Z,146.80
2022-11-24T08:28:44.398Z,144.40
2022-11-24T08:33:52.354Z,122.80
2022-11-24T08:44:05.837Z,153.00
2022-11-24T08:49:14.262Z,163.50
2022-11-24T08:54:21.925Z,150.50
2022-11-24T08:59:29.098Z,134.40
2022-11-24T09:04:36.501Z,147.80
2022-11-24T09:09:43.747Z,124.90
2022-11-24T09:14:50.711Z,143.00
2022-11-24T09:19:57.712Z,115.50
2022-11-24T09:25:06.038Z,129.80
2022-11-24T09:30:15.724Z,137.30
2022-11-24T09:35:22.678Z,123.80
2022-11-24T09:40:35.935Z,127.80
2022-11-24T09:46:05.381Z,126.20
2022-11-24T09:51:16.574Z,112.50
2022-11-24T09:56:43.704Z,135.80
2022-11-24T10:01:52.253Z,134.20
2022-11-24T10:07:13.362Z,128.20
2022-11-24T10:12:51.429Z,129.90
2022-11-24T10:18:21.231Z,132.00
2022-11-24T10:24:01.116Z,128.70
2022-11-24T10:29:22.610Z,125.90
2022-11-24T10:34:42.329Z,120.80
2022-11-24T10:40:33.505Z,134.60
2022-11-24T10:45:45.684Z,152.20
2022-11-24T10:51:24.720Z,144.00
2022-11-24T10:56:48.133Z,152.30
2022-11-24T11:01:56.407Z,133.20
2022-11-24T11:07:20.955Z,149.00
2022-11-24T11:13:01.973Z,146.10
2022-11-24T11:18:34.512Z,151.40
2022-11-24T11:23:54.357Z,167.40
2022-11-24T11:34:38.518Z,152.30
2022-11-24T11:39:49.023Z,150.90
2022-11-24T11:45:00.590Z,145.30
2022-11-24T11:50:14.552Z,141.40
2022-11-24T11:55:50.890Z,144.80
2022-11-24T12:01:07.462Z,177.40
2022-11-24T12:06:30.050Z,147.90
2022-11-24T12:11:44.382Z,141.90
2022-11-24T12:17:02.396Z,133.50
2022-11-24T12:22:20.709Z,139.10
2022-11-24T12:27:39.167Z,139.30
2022-11-24T12:33:12.984Z,153.70
2022-11-24T12:38:33.865Z,163.80
2022-11-24T12:43:43.474Z,151.70
2022-11-24T12:49:02.734Z,171.50
2022-11-24T12:54:16.937Z,149.40
2022-11-24T12:59:35.390Z,152.30
2022-11-24T13:04:48.441Z,154.80
2022-11-24T13:10:54.338Z,151.70
2022-11-24T13:22:01.241Z,149.40
2022-11-24T13:27:44.348Z,156.50
2022-11-24T13:33:03.259Z,161.20
2022-11-24T13:38:43.279Z,157.40
2022-11-24T13:44:22.826Z,161.00
2022-11-24T13:49:42.630Z,167.00
2022-11-24T13:54:49.826Z,165.50
2022-11-24T14:00:03.960Z,196.80
2022-11-24T14:05:16.105Z,182.40
2022-11-24T14:10:28.137Z,183.00
2022-11-24T14:15:36.691Z,176.20
2022-11-24T14:20:43.853Z,199.40
2022-11-24T14:25:52.906Z,192.20
2022-11-24T14:31:11.026Z,201.20
2022-11-24T14:36:19.349Z,187.00
2022-11-24T14:41:30.418Z,174.10
2022-11-24T14:46:37.894Z,205.20
2022-11-24T14:51:51.704Z,202.00
2022-11-24T14:57:09.937Z,209.80
2022-11-24T15:02:46.460Z,192.50
2022-11-24T15:08:02.876Z,185.50
2022-11-24T15:13:23.213Z,170.00
2022-11-24T15:18:42.630Z,182.90
2022-11-24T15:24:07.545Z,208.10
2022-11-24T15:29:15.431Z,199.10
2022-11-24T15:39:30.184Z,200.50
2022-11-24T15:44:37.486Z,204.00
2022-11-24T15:49:45.832Z,183.70
2022-11-24T15:54:57.366Z,178.00
2022-11-24T16:00:05.352Z,191.20
2022-11-24T16:05:19.759Z,211.20
2022-11-24T16:10:31.056Z,205.60
2022-11-24T16:15:38.325Z,188.50
2022-11-24T16:20:45.486Z,186.30
2022-11-24T16:25:52.680Z,176.60
2022-11-24T16:30:59.694Z,183.20
2022-11-24T16:36:07.291Z,183.40
2022-11-24T16:41:14.607Z,158.50
2022-11-24T16:46:23.767Z,194.70
2022-11-24T16:51:34.942Z,184.70
2022-11-24T16:56:42.715Z,182.80
2022-11-24T17:01:50.894Z,187.40
2022-11-24T17:06:59.651Z,175.30
2022-11-24T17:12:07.103Z,184.30
2022-11-24T17:17:14.297Z,175.20
2022-11-24T17:22:21.307Z,190.30
2022-11-24T17:27:28.802Z,183.80
2022-11-24T17:32:36.029Z,167.00
2022-11-24T17:37:43.178Z,181.60
2022-11-24T17:42:50.297Z,163.70
2022-11-24T17:47:57.616Z,168.20
2022-11-24T17:53:05.199Z,171.90
2022-11-24T17:58:12.281Z,197.70
2022-11-24T18:03:19.459Z,180.20
2022-11-24T18:08:50.583Z,175.80
2022-11-24T18:14:12.831Z,177.50
2022-11-24T18:26:09.484Z,171.60
2022-11-24T18:31:21.072Z,170.00
2022-11-24T18:36:30.593Z,180.50
2022-11-24T18:41:38.557Z,177.80
2022-11-24T18:46:46.324Z,163.80
2022-11-24T18:51:53.834Z,159.50
2022-11-24T18:57:03.574Z,180.30
2022-11-24T19:02:28.354Z,180.80
2022-11-24T19:08:09.580Z,184.40
2022-11-24T19:13:35.389Z,189.80
2022-11-24T19:28:08.779Z,180.30
2022-11-24T19:33:29.052Z,164.30
2022-11-24T19:39:19.896Z,185.30
2022-11-24T19:44:36.393Z,218.70
2022-11-24T19:49:43.634Z,186.60
2022-11-24T19:54:50.577Z,190.60
2022-11-24T19:59:57.567Z,167.10
2022-11-24T20:05:07.049Z,176.40
2022-11-24T20:10:15.488Z,175.00
2022-11-24T20:15:22.399Z,158.10
2022-11-24T20:20:30.486Z,185.70
2022-11-24T20:30:46.104Z,178.40
2022-11-24T20:35:55.612Z,158.90
2022-11-24T20:41:09.388Z,163.00
2022-11-24T20:46:22.389Z,156.50
2022-11-24T20:51:31.521Z,154.70
2022-11-24T20:56:41.133Z,175.20
2022-11-24T21:01:50.310Z,170.40
2022-11-24T21:06:57.808Z,136.90
2022-11-24T21:12:05.104Z,127.90
2022-11-24T21:17:15.121Z,157.30
2022-11-24T21:22:22.122Z,142.10
2022-11-24T21:27:29.574Z,144.20
2022-11-24T21:32:37.048Z,145.30
2022-11-24T21:37:44.314Z,121.60
2022-11-24T21:42:51.548Z,126.60
2022-11-24T21:48:00.503Z,129.70
2022-11-24T21:53:09.662Z,120.40
2022-11-24T21:58:16.721Z,125.00
2022-11-24T22:03:27.187Z,122.80
2022-11-24T22:08:34.444Z,136.10
2022-11-24T22:13:42.024Z,140.60
2022-11-24T22:18:49.260Z,120.30
2022-11-24T22:23:56.241Z,112.60
2022-11-24T22:29:03.367Z,119.20
2022-11-24T22:34:10.622Z,105.70
2022-11-24T22:39:17.845Z,98.20
2022-11-24T22:44:24.780Z,114.10
2022-11-24T22:49:31.749Z,109.70
2022-11-24T22:54:38.747Z,96.60
2022-11-24T22:59:45.907Z,96.40
2022-11-24T23:04:52.981Z,95.30
2022-11-24T23:09:59.948Z,100.70
2022-11-24T23:15:08.260Z,108.20
2022-11-24T23:20:17.126Z,97.40
2022-11-24T23:25:26.400Z,109.60
2022-11-24T23:30:35.065Z,119.90
2022-11-24T23:35:42.172Z,108.30
2022-11-24T23:40:49.299Z,103.10
2022-11-24T23:45:56.328Z,97.90
2022-11-24T23:51:08.635Z,117.80
2022-11-24T23:56:18.059Z,127.70
